Canefield Airport

Partly cloudy and hazy
31oC (88oF)

Partly cloudy and hazy


Winds: South easterly @ 06kts / 11km/h

Humidity: 56%

Barometric Pressure: 1015 mb

Accumulated Rainfall for May: 31.9 mm

Updated: 16:00 local time (20:00 UTC)

Douglas-Charles Airport

Fair and hazy
27oC (81oF)

Fair and hazy


Winds: East south easterly @ 06kts / 11km/h

Humidity: 84%

Barometric Pressure: 1018 mb

Accumulated Rainfall for May: 75.1 mm

Updated: 7:00 local time (11:00 UTC)

Satellite Imagery

Satellite Imagery
Click image for larger view. (Source: National Hurricane Center).

Aviation Routine Report (METAR)

Douglas-Charles: METAR TDPD 191100Z 12006KT 9999 FEW017 27/24 Q1018=
Canefield: METAR TDCF 182000Z 14006KT 9999 SCT024 31/21 Q1015=